sensor_id;sensor_type;location;lat;lon;timestamp;pressure;altitude;pressure_sealevel;temperature;humidity
33949;BME280;20229;49.856;19.030;2023-10-09T15:30:44;101655.13;;;16.56;63.05
33949;BME280;20229;49.856;19.030;2023-10-09T15:36:15;101686.09;;;13.69;68.38
33949;BME280;20229;49.856;19.030;2023-10-09T15:41:36;101696.65;;;11.94;72.74
33949;BME280;20229;49.856;19.030;2023-10-09T15:46:53;101712.93;;;10.93;76.54
33949;BME280;20229;49.856;19.030;2023-10-09T15:52:13;101713.59;;;10.33;78.99
33949;BME280;20229;49.856;19.030;2023-10-09T15:57:31;101715.85;;;9.96;80.46
33949;BME280;20229;49.856;19.030;2023-10-09T16:02:49;101720.34;;;9.74;83.10
33949;BME280;20229;49.856;19.030;2023-10-09T16:08:07;101717.99;;;9.63;84.68
33949;BME280;20229;49.856;19.030;2023-10-09T16:13:21;101712.87;;;9.54;85.43
33949;BME280;20229;49.856;19.030;2023-10-09T16:18:36;101722.20;;;9.47;85.62
33949;BME280;20229;49.856;19.030;2023-10-09T16:23:53;101724.05;;;9.46;87.29
33949;BME280;20229;49.856;19.030;2023-10-09T16:29:12;101727.84;;;9.42;87.87
33949;BME280;20229;49.856;19.030;2023-10-09T16:34:32;101727.02;;;9.40;88.43
33949;BME280;20229;49.856;19.030;2023-10-09T16:39:52;101724.30;;;9.40;88.67
33949;BME280;20229;49.856;19.030;2023-10-09T16:45:12;101706.10;;;9.41;89.26
33949;BME280;20229;49.856;19.030;2023-10-09T16:50:29;101714.32;;;9.39;89.93
33949;BME280;20229;49.856;19.030;2023-10-09T16:55:43;101714.32;;;9.39;89.89
33949;BME280;20229;49.856;19.030;2023-10-09T17:01:02;101712.48;;;9.40;90.17
33949;BME280;20229;49.856;19.030;2023-10-09T17:06:17;101725.96;;;9.44;90.35
33949;BME280;20229;49.856;19.030;2023-10-09T17:11:32;101744.87;;;9.49;90.71
33949;BME280;20229;49.856;19.030;2023-10-09T17:16:49;101741.05;;;9.54;91.09
33949;BME280;20229;49.856;19.030;2023-10-09T17:22:04;101745.47;;;9.57;91.84
33949;BME280;20229;49.856;19.030;2023-10-09T17:27:27;101748.06;;;9.62;92.05
33949;BME280;20229;49.856;19.030;2023-10-09T17:32:45;101740.70;;;9.64;92.87
33949;BME280;20229;49.856;19.030;2023-10-09T17:37:59;101743.14;;;9.71;92.84
33949;BME280;20229;49.856;19.030;2023-10-09T17:43:13;101741.20;;;9.75;93.52
33949;BME280;20229;49.856;19.030;2023-10-09T17:48:31;101761.83;;;9.82;93.28
33949;BME280;20229;49.856;19.030;2023-10-09T17:53:45;101771.71;;;9.86;94.17
33949;BME280;20229;49.856;19.030;2023-10-09T17:59:00;101776.11;;;9.90;93.78
33949;BME280;20229;49.856;19.030;2023-10-09T18:04:17;101759.64;;;9.93;95.35
33949;BME280;20229;49.856;19.030;2023-10-09T18:09:32;101758.49;;;9.99;95.25
33949;BME280;20229;49.856;19.030;2023-10-09T18:14:49;101751.94;;;10.04;94.49
33949;BME280;20229;49.856;19.030;2023-10-09T18:20:13;101760.92;;;10.06;95.39
33949;BME280;20229;49.856;19.030;2023-10-09T18:25:28;101751.74;;;10.09;95.99
33949;BME280;20229;49.856;19.030;2023-10-09T18:30:41;101757.87;;;10.16;96.61
33949;BME280;20229;49.856;19.030;2023-10-09T18:36:08;101754.18;;;10.17;97.54
33949;BME280;20229;49.856;19.030;2023-10-09T18:41:26;101754.84;;;10.23;96.92
33949;BME280;20229;49.856;19.030;2023-10-09T18:46:40;101761.10;;;10.27;97.53
33949;BME280;20229;49.856;19.030;2023-10-09T18:51:56;101758.16;;;10.33;97.29
33949;BME280;20229;49.856;19.030;2023-10-09T18:57:11;101767.99;;;10.37;97.68
33949;BME280;20229;49.856;19.030;2023-10-09T19:02:26;101774.15;;;10.42;97.94
33949;BME280;20229;49.856;19.030;2023-10-09T19:07:39;101770.38;;;10.46;98.07
33949;BME280;20229;49.856;19.030;2023-10-09T19:12:53;101788.34;;;10.52;98.11
33949;BME280;20229;49.856;19.030;2023-10-09T19:18:07;101783.77;;;10.52;97.45
33949;BME280;20229;49.856;19.030;2023-10-09T19:23:25;101782.84;;;10.53;97.76
33949;BME280;20229;49.856;19.030;2023-10-09T19:28:42;101791.14;;;10.50;97.53
33949;BME280;20229;49.856;19.030;2023-10-09T19:33:56;101790.26;;;10.50;97.73
33949;BME280;20229;49.856;19.030;2023-10-09T19:39:16;101789.41;;;10.48;97.72
33949;BME280;20229;49.856;19.030;2023-10-09T19:44:30;101792.15;;;10.48;97.05
33949;BME280;20229;49.856;19.030;2023-10-09T19:49:44;101796.64;;;10.49;97.49
33949;BME280;20229;49.856;19.030;2023-10-09T19:54:58;101815.75;;;10.49;97.38
33949;BME280;20229;49.856;19.030;2023-10-09T20:00:13;101805.02;;;10.44;97.28
33949;BME280;20229;49.856;19.030;2023-10-09T20:05:38;101793.22;;;10.44;97.29
33949;BME280;20229;49.856;19.030;2023-10-09T20:10:54;101806.02;;;10.42;97.40
33949;BME280;20229;49.856;19.030;2023-10-09T20:16:08;101806.98;;;10.41;97.46
33949;BME280;20229;49.856;19.030;2023-10-09T20:21:22;101815.25;;;10.39;97.44
33949;BME280;20229;49.856;19.030;2023-10-09T20:26:36;101806.21;;;10.37;95.87
33949;BME280;20229;49.856;19.030;2023-10-09T20:31:55;101798.36;;;10.28;97.11
33949;BME280;20229;49.856;19.030;2023-10-09T20:37:09;101818.60;;;10.21;97.30
33949;BME280;20229;49.856;19.030;2023-10-09T20:42:26;101811.48;;;10.17;97.00
33949;BME280;20229;49.856;19.030;2023-10-09T20:47:46;101813.51;;;10.12;96.85
33949;BME280;20229;49.856;19.030;2023-10-09T20:53:09;101821.02;;;10.05;96.90
33949;BME280;20229;49.856;19.030;2023-10-09T20:58:24;101822.98;;;10.01;97.07
33949;BME280;20229;49.856;19.030;2023-10-09T21:03:37;101829.53;;;9.96;97.01
33949;BME280;20229;49.856;19.030;2023-10-09T21:08:51;101820.63;;;9.91;97.46
33949;BME280;20229;49.856;19.030;2023-10-09T21:14:05;101816.27;;;9.85;97.75
33949;BME280;20229;49.856;19.030;2023-10-09T21:19:19;101816.37;;;9.82;97.33
33949;BME280;20229;49.856;19.030;2023-10-09T21:24:35;101821.02;;;9.80;97.70
33949;BME280;20229;49.856;19.030;2023-10-09T21:29:49;101817.45;;;9.78;97.32
33949;BME280;20229;49.856;19.030;2023-10-09T21:35:04;101825.80;;;9.73;97.74
33949;BME280;20229;49.856;19.030;2023-10-09T21:40:23;101828.62;;;9.70;97.86
33949;BME280;20229;49.856;19.030;2023-10-09T21:45:41;101834.08;;;9.70;97.81
33949;BME280;20229;49.856;19.030;2023-10-09T21:50:59;101833.13;;;9.71;97.85
33949;BME280;20229;49.856;19.030;2023-10-09T21:56:13;101832.24;;;9.71;97.58
33949;BME280;20229;49.856;19.030;2023-10-09T22:01:28;101840.32;;;9.74;98.02
33949;BME280;20229;49.856;19.030;2023-10-09T22:06:42;101841.27;;;9.73;98.00
33949;BME280;20229;49.856;19.030;2023-10-09T22:11:57;101859.41;;;9.74;98.35
33949;BME280;20229;49.856;19.030;2023-10-09T22:17:10;101863.02;;;9.74;98.41
33949;BME280;20229;49.856;19.030;2023-10-09T22:22:24;101861.17;;;9.75;98.25
33949;BME280;20229;49.856;19.030;2023-10-09T22:27:40;101862.13;;;9.74;98.38
33949;BME280;20229;49.856;19.030;2023-10-09T22:32:56;101865.70;;;9.76;98.62
33949;BME280;20229;49.856;19.030;2023-10-09T22:38:18;101862.20;;;9.72;98.76
33949;BME280;20229;49.856;19.030;2023-10-09T22:43:36;101869.49;;;9.72;98.50
33949;BME280;20229;49.856;19.030;2023-10-09T22:48:53;101871.27;;;9.73;98.80
33949;BME280;20229;49.856;19.030;2023-10-09T22:54:50;101875.04;;;9.69;98.72
33949;BME280;20229;49.856;19.030;2023-10-09T23:00:09;101873.99;;;9.73;98.80
33949;BME280;20229;49.856;19.030;2023-10-09T23:05:35;101879.54;;;9.70;98.97
33949;BME280;20229;49.856;19.030;2023-10-09T23:10:57;101877.70;;;9.70;99.15
33949;BME280;20229;49.856;19.030;2023-10-09T23:16:23;101884.14;;;9.68;99.21
33949;BME280;20229;49.856;19.030;2023-10-09T23:21:52;101888.70;;;9.67;98.83
33949;BME280;20229;49.856;19.030;2023-10-09T23:27:22;101884.28;;;9.65;99.13
33949;BME280;20229;49.856;19.030;2023-10-09T23:33:13;101898.92;;;9.61;99.02
33949;BME280;20229;49.856;19.030;2023-10-09T23:38:39;101893.47;;;9.61;99.16
33949;BME280;20229;49.856;19.030;2023-10-09T23:44:05;101902.60;;;9.60;99.49
33949;BME280;20229;49.856;19.030;2023-10-09T23:49:21;101913.48;;;9.61;99.63
33949;BME280;20229;49.856;19.030;2023-10-09T23:54:42;101898.03;;;9.60;100.00
